Time;durP1;ratioP1;P1;durP2;ratioP2;P2;SDS_P1;SDS_P2;PMS_P1;PMS_P2;Temp;Humidity;BMP_temperature;BMP_pressure;BME280_temperature;BME280_humidity;BME280_pressure;Samples;Min_cycle;Max_cycle;Signal;HPM_P1;HPM_P2
2022/03/07 00:01:11;;;;;;;7.80;7.10;;;3.00;99.90;;;;;;5036099;28;20834;-69
2022/03/07 00:03:41;;;;;;;9.97;7.80;;;3.00;99.90;;;;;;5036995;28;20452;-70
2022/03/07 00:06:09;;;;;;;8.43;7.20;;;3.00;99.90;;;;;;5036805;28;20563;-69
2022/03/07 00:08:36;;;;;;;13.53;8.57;;;3.10;99.90;;;;;;5037546;28;20464;-70
2022/03/07 00:11:03;;;;;;;8.80;6.63;;;3.10;99.90;;;;;;5036257;28;20460;-69
2022/03/07 00:13:33;;;;;;;10.10;7.00;;;3.10;99.90;;;;;;5036478;28;20935;-70
2022/03/07 00:15:59;;;;;;;12.60;7.73;;;3.10;99.90;;;;;;5036301;28;20487;-70
2022/03/07 00:18:26;;;;;;;8.57;7.00;;;3.20;99.90;;;;;;5036937;28;20794;-69
2022/03/07 00:20:53;;;;;;;9.50;7.53;;;3.20;99.90;;;;;;5036401;28;20456;-70
2022/03/07 00:23:21;;;;;;;12.70;7.87;;;3.30;99.90;;;;;;5035935;28;20464;-70
2022/03/07 00:25:47;;;;;;;10.00;7.60;;;3.30;99.90;;;;;;5036010;28;20456;-70
2022/03/07 00:28:16;;;;;;;7.67;6.87;;;3.20;99.90;;;;;;5036266;28;20456;-70
2022/03/07 00:30:42;;;;;;;10.23;8.07;;;3.20;99.90;;;;;;5035993;28;20464;-70
2022/03/07 00:33:09;;;;;;;10.00;7.97;;;3.20;99.90;;;;;;5035876;28;20453;-70
2022/03/07 00:35:36;;;;;;;14.10;8.60;;;3.20;99.90;;;;;;5036227;28;20565;-70
2022/03/07 00:38:03;;;;;;;9.63;8.47;;;3.10;99.90;;;;;;5037310;28;20471;-70
2022/03/07 00:40:31;;;;;;;10.07;8.10;;;3.10;99.90;;;;;;5039649;28;20456;-70
2022/03/07 00:42:57;;;;;;;9.73;7.80;;;3.10;99.90;;;;;;5039305;28;20484;-69
2022/03/07 00:45:24;;;;;;;9.37;7.37;;;3.10;99.90;;;;;;5035814;28;20908;-68
2022/03/07 00:47:51;;;;;;;10.53;7.20;;;3.10;99.90;;;;;;5035519;28;20925;-70
2022/03/07 00:50:17;;;;;;;8.17;7.30;;;3.10;99.90;;;;;;5035442;28;20475;-70
2022/03/07 00:52:44;;;;;;;9.23;8.23;;;3.00;99.90;;;;;;5035520;28;20460;-70
2022/03/07 00:55:11;;;;;;;8.63;7.67;;;2.90;99.90;;;;;;5035403;28;20460;-70
2022/03/07 00:57:39;;;;;;;10.80;7.47;;;2.90;99.90;;;;;;5034820;28;20845;-70
2022/03/07 01:00:07;;;;;;;8.00;7.20;;;2.90;99.90;;;;;;5036054;28;20463;-70
2022/03/07 01:02:34;;;;;;;9.37;6.33;;;2.90;99.90;;;;;;5036791;28;20456;-70
2022/03/07 01:05:01;;;;;;;7.13;6.00;;;2.80;99.90;;;;;;5035528;28;20470;-70
2022/03/07 01:07:28;;;;;;;7.93;6.90;;;2.80;99.90;;;;;;5035320;28;20479;-70
2022/03/07 01:09:54;;;;;;;7.47;6.20;;;2.70;99.90;;;;;;5035399;28;20792;-69
2022/03/07 01:12:21;;;;;;;8.00;6.67;;;2.70;99.90;;;;;;5035158;28;20470;-70
2022/03/07 01:14:50;;;;;;;11.10;6.47;;;2.60;99.90;;;;;;5035224;28;20505;-70
2022/03/07 01:17:16;;;;;;;8.60;6.30;;;2.60;99.90;;;;;;5034889;28;20573;-70
2022/03/07 01:19:45;;;;;;;7.13;6.40;;;2.60;99.90;;;;;;5034707;28;20877;-71
2022/03/07 01:22:11;;;;;;;7.97;6.23;;;2.60;99.90;;;;;;5034823;28;20460;-70
2022/03/07 01:24:38;;;;;;;6.67;5.97;;;2.60;99.90;;;;;;5035004;28;20558;-69
2022/03/07 01:27:05;;;;;;;6.87;6.23;;;2.60;99.90;;;;;;5034898;28;20776;-70
2022/03/07 01:29:32;;;;;;;7.30;6.60;;;2.60;99.90;;;;;;5034752;28;20916;-70
2022/03/07 01:32:00;;;;;;;10.77;6.80;;;2.60;99.90;;;;;;5034906;28;20921;-70
2022/03/07 01:34:26;;;;;;;8.20;6.33;;;2.60;99.90;;;;;;5034853;28;20487;-70
2022/03/07 01:36:53;;;;;;;11.47;6.27;;;2.60;99.90;;;;;;5034945;28;20480;-70
2022/03/07 01:39:20;;;;;;;11.17;7.00;;;2.50;99.90;;;;;;5034244;28;20558;-70
2022/03/07 01:41:47;;;;;;;7.83;7.03;;;2.50;99.90;;;;;;5034453;28;20486;-70
2022/03/07 01:44:18;;;;;;;8.30;6.77;;;2.50;99.90;;;;;;5034351;28;20495;-70
2022/03/07 01:46:45;;;;;;;7.80;7.00;;;2.50;99.90;;;;;;5034686;28;20746;-70
2022/03/07 01:49:13;;;;;;;12.70;8.63;;;2.40;99.90;;;;;;5034173;28;20555;-70
2022/03/07 01:51:42;;;;;;;9.87;7.17;;;2.30;99.90;;;;;;5034325;28;20519;-70
2022/03/07 01:54:10;;;;;;;11.17;7.23;;;2.30;99.90;;;;;;5034491;28;20788;-70
2022/03/07 01:56:37;;;;;;;15.93;10.93;;;2.40;99.90;;;;;;5034413;28;20823;-69
2022/03/07 01:59:04;;;;;;;9.33;7.20;;;2.40;99.90;;;;;;5034300;28;20464;-70
2022/03/07 02:01:31;;;;;;;12.90;7.80;;;2.40;99.90;;;;;;5034440;28;20535;-69
2022/03/07 02:03:58;;;;;;;8.57;7.37;;;2.40;99.90;;;;;;5034079;28;20909;-70
2022/03/07 02:06:27;;;;;;;8.60;7.37;;;2.40;99.90;;;;;;5034202;28;20536;-70
2022/03/07 02:08:56;;;;;;;12.60;7.00;;;2.40;99.90;;;;;;5033918;28;20471;-70
2022/03/07 02:11:23;;;;;;;11.17;6.80;;;2.40;99.90;;;;;;5033967;28;20461;-70
2022/03/07 02:13:50;;;;;;;9.53;7.30;;;2.40;99.90;;;;;;5034108;28;20456;-70
2022/03/07 02:16:17;;;;;;;11.20;6.87;;;2.40;99.90;;;;;;5035042;28;20476;-70
2022/03/07 02:18:44;;;;;;;7.70;6.93;;;2.30;99.90;;;;;;5035345;28;20792;-70
2022/03/07 02:21:15;;;;;;;8.87;6.77;;;2.30;99.90;;;;;;5035319;28;20921;-70
2022/03/07 02:23:43;;;;;;;8.40;7.30;;;2.30;99.90;;;;;;5034954;28;21111;-69
2022/03/07 02:26:11;;;;;;;8.57;7.10;;;2.40;99.90;;;;;;5034267;28;20456;-69
2022/03/07 02:28:39;;;;;;;9.87;7.13;;;2.40;99.90;;;;;;5033864;28;20467;-68
2022/03/07 02:31:06;;;;;;;12.57;7.30;;;2.40;99.90;;;;;;5033779;28;20460;-69
2022/03/07 02:33:34;;;;;;;8.73;7.40;;;2.40;99.90;;;;;;5033548;28;20931;-70
2022/03/07 02:36:01;;;;;;;7.50;6.73;;;2.30;99.90;;;;;;5033371;28;20460;-70
2022/03/07 02:38:28;;;;;;;7.60;5.80;;;2.30;99.90;;;;;;5033480;28;20452;-70
2022/03/07 02:40:56;;;;;;;6.77;6.00;;;2.20;99.90;;;;;;5033652;28;20456;-70
2022/03/07 02:43:23;;;;;;;10.83;6.70;;;2.20;99.90;;;;;;5033268;28;20487;-70
2022/03/07 02:45:51;;;;;;;9.30;7.18;;;2.20;99.90;;;;;;5033704;28;20436;-69
2022/03/07 02:48:18;;;;;;;7.70;6.70;;;2.20;99.90;;;;;;5034580;28;20700;-69
2022/03/07 02:50:45;;;;;;;7.80;6.70;;;2.20;99.90;;;;;;5034314;28;20488;-69
2022/03/07 02:53:14;;;;;;;7.40;6.10;;;2.10;99.90;;;;;;5034318;28;20554;-69
2022/03/07 02:55:41;;;;;;;10.13;6.10;;;2.10;99.90;;;;;;5034259;28;20910;-69
2022/03/07 02:58:09;;;;;;;8.27;6.87;;;2.00;99.90;;;;;;5034296;28;20804;-69
2022/03/07 03:00:36;;;;;;;12.63;7.07;;;1.90;99.90;;;;;;5034299;28;20463;-69
2022/03/07 03:03:03;;;;;;;9.00;6.67;;;1.90;99.90;;;;;;5034841;28;20610;-70
2022/03/07 03:05:29;;;;;;;8.23;6.43;;;1.90;99.90;;;;;;5034287;28;20463;-69
2022/03/07 03:07:57;;;;;;;7.30;6.00;;;1.90;99.90;;;;;;5034301;28;20517;-70
2022/03/07 03:10:24;;;;;;;8.33;6.63;;;1.80;99.90;;;;;;5034328;28;20456;-69
2022/03/07 03:12:51;;;;;;;7.50;6.73;;;1.80;99.90;;;;;;5034255;28;20460;-70
2022/03/07 03:15:20;;;;;;;8.77;6.67;;;1.80;99.90;;;;;;5034172;28;20464;-69
2022/03/07 03:17:47;;;;;;;8.23;7.20;;;1.80;99.90;;;;;;5034128;28;20491;-69
2022/03/07 03:20:18;;;;;;;9.83;7.40;;;1.70;99.90;;;;;;5034394;28;20917;-70
2022/03/07 03:22:46;;;;;;;9.87;8.27;;;1.70;99.90;;;;;;5037971;28;20455;-70
2022/03/07 03:25:15;;;;;;;9.97;7.13;;;1.70;99.90;;;;;;5037605;28;20468;-71
2022/03/07 03:27:42;;;;;;;10.50;7.77;;;1.60;99.90;;;;;;5037444;28;20460;-70
2022/03/07 03:30:14;;;;;;;9.90;7.10;;;1.60;99.90;;;;;;5037681;28;20552;-70
2022/03/07 03:32:42;;;;;;;8.13;7.10;;;1.60;99.90;;;;;;5037657;28;20451;-70
2022/03/07 03:35:09;;;;;;;8.57;7.67;;;1.50;99.90;;;;;;5037247;28;20471;-70
2022/03/07 03:37:36;;;;;;;8.63;7.07;;;1.50;99.90;;;;;;5037574;28;20476;-69
2022/03/07 03:40:04;;;;;;;9.03;7.20;;;1.40;99.90;;;;;;5037199;28;20929;-69
2022/03/07 03:42:31;;;;;;;9.80;7.17;;;1.40;99.90;;;;;;5037028;28;20515;-69
2022/03/07 03:44:57;;;;;;;9.17;7.83;;;1.40;99.90;;;;;;5037421;28;20444;-69
2022/03/07 03:47:24;;;;;;;10.30;7.83;;;1.40;99.90;;;;;;5037316;28;20558;-70
2022/03/07 03:49:52;;;;;;;10.77;8.40;;;1.50;99.90;;;;;;5037310;28;20455;-70
2022/03/07 03:52:19;;;;;;;10.33;7.17;;;1.50;99.90;;;;;;5037282;28;20467;-70
2022/03/07 03:54:46;;;;;;;8.73;7.67;;;1.50;99.90;;;;;;5037400;28;20464;-69
2022/03/07 03:57:12;;;;;;;9.30;7.80;;;1.40;99.90;;;;;;5037269;28;20564;-70
2022/03/07 03:59:39;;;;;;;9.17;7.53;;;1.40;99.90;;;;;;5037105;28;20943;-70
2022/03/07 04:02:09;;;;;;;10.27;8.50;;;1.40;99.90;;;;;;5037185;28;20464;-70
2022/03/07 04:04:35;;;;;;;10.00;8.17;;;1.40;99.90;;;;;;5037014;28;20940;-70
2022/03/07 04:07:04;;;;;;;9.17;7.60;;;1.40;99.90;;;;;;5036939;28;20456;-70
2022/03/07 04:09:30;;;;;;;11.90;8.13;;;1.40;99.90;;;;;;5037188;28;20490;-70
2022/03/07 04:11:57;;;;;;;10.90;8.50;;;1.40;99.90;;;;;;5037234;28;20764;-70
2022/03/07 04:14:24;;;;;;;11.10;8.40;;;1.40;99.90;;;;;;5037682;28;20460;-70
2022/03/07 04:16:50;;;;;;;12.57;8.57;;;1.40;99.90;;;;;;5040542;28;20477;-70
2022/03/07 04:19:17;;;;;;;9.10;7.90;;;1.40;99.90;;;;;;5041127;28;20455;-70
2022/03/07 04:21:44;;;;;;;11.53;8.70;;;1.40;99.90;;;;;;5038391;28;20459;-70
2022/03/07 04:24:13;;;;;;;11.27;8.80;;;1.30;99.90;;;;;;5040378;28;20464;-70
2022/03/07 04:26:40;;;;;;;10.20;8.10;;;1.30;99.90;;;;;;5039508;28;20789;-70
2022/03/07 04:29:08;;;;;;;10.10;7.80;;;1.40;99.90;;;;;;5036973;28;20456;-69
2022/03/07 04:31:34;;;;;;;13.63;10.00;;;1.40;99.90;;;;;;5036629;28;20467;-69
2022/03/07 04:34:01;;;;;;;13.50;8.40;;;1.30;99.90;;;;;;5036395;28;20475;-70
2022/03/07 04:36:28;;;;;;;11.33;9.00;;;1.30;99.90;;;;;;5036461;28;20455;-69
2022/03/07 04:38:55;;;;;;;9.43;8.43;;;1.30;99.90;;;;;;5036601;28;20467;-69
2022/03/07 04:41:23;;;;;;;11.93;9.27;;;1.30;99.90;;;;;;5036672;28;20460;-70
2022/03/07 04:43:49;;;;;;;13.27;10.03;;;1.20;99.90;;;;;;5036063;28;20562;-69
2022/03/07 04:46:18;;;;;;;11.40;9.67;;;1.20;99.90;;;;;;5036316;28;20518;-69
2022/03/07 04:48:45;;;;;;;9.83;8.83;;;1.20;99.90;;;;;;5036299;28;20483;-69
2022/03/07 04:51:13;;;;;;;10.00;8.77;;;1.10;99.90;;;;;;5036447;28;20460;-70
2022/03/07 04:53:39;;;;;;;14.67;9.20;;;1.10;99.90;;;;;;5036377;28;20464;-69
2022/03/07 04:56:06;;;;;;;11.20;9.83;;;1.10;99.90;;;;;;5036605;28;20526;-69
2022/03/07 04:58:35;;;;;;;10.93;9.07;;;1.10;99.90;;;;;;5036389;28;20506;-69
2022/03/07 05:01:01;;;;;;;12.53;9.33;;;1.00;99.90;;;;;;5036352;28;20456;-69
2022/03/07 05:03:28;;;;;;;12.80;10.00;;;1.00;99.90;;;;;;5036516;28;20464;-70
2022/03/07 05:05:56;;;;;;;9.83;8.60;;;1.00;99.90;;;;;;5036128;28;20827;-69
2022/03/07 05:08:22;;;;;;;14.93;10.07;;;1.00;99.90;;;;;;5036443;28;20892;-69
2022/03/07 05:10:49;;;;;;;12.10;9.23;;;1.00;99.90;;;;;;5036209;28;20460;-69
2022/03/07 05:13:16;;;;;;;11.43;9.03;;;1.00;99.90;;;;;;5036364;28;20455;-72
2022/03/07 05:15:44;;;;;;;14.63;10.03;;;1.00;99.90;;;;;;5035995;28;20513;-70
2022/03/07 05:18:11;;;;;;;14.73;9.03;;;0.90;99.90;;;;;;5036711;28;20530;-69
2022/03/07 05:20:37;;;;;;;13.07;9.93;;;0.90;99.90;;;;;;5037436;28;20471;-69
2022/03/07 05:23:04;;;;;;;15.50;9.10;;;0.90;99.90;;;;;;5037235;28;20464;-69
2022/03/07 05:25:31;;;;;;;11.73;9.57;;;0.90;99.90;;;;;;5037776;28;20464;-69
2022/03/07 05:27:57;;;;;;;13.03;9.90;;;0.90;99.90;;;;;;5038548;28;20452;-70
2022/03/07 05:30:27;;;;;;;16.13;10.60;;;0.90;99.90;;;;;;5037733;28;20460;-69
2022/03/07 05:32:55;;;;;;;12.60;9.07;;;0.90;99.90;;;;;;5038244;28;20468;-69
2022/03/07 05:35:23;;;;;;;16.90;10.30;;;0.90;99.90;;;;;;5036352;28;20547;-70
2022/03/07 05:37:50;;;;;;;11.93;9.50;;;0.80;99.90;;;;;;5036656;28;20566;-70
2022/03/07 05:40:18;;;;;;;15.70;10.50;;;0.80;99.90;;;;;;5036272;28;20475;-70
2022/03/07 05:42:46;;;;;;;14.50;10.33;;;0.90;99.90;;;;;;5034911;28;20479;-70
2022/03/07 05:45:14;;;;;;;12.07;9.27;;;0.90;99.90;;;;;;5035332;28;20482;-69
2022/03/07 05:47:42;;;;;;;13.77;10.07;;;0.90;99.90;;;;;;5035455;28;20467;-70
2022/03/07 05:50:11;;;;;;;16.00;10.70;;;0.90;99.90;;;;;;5035081;28;20771;-70
2022/03/07 05:52:38;;;;;;;16.30;10.60;;;0.90;99.90;;;;;;5035168;28;20456;-70
2022/03/07 05:55:06;;;;;;;23.00;12.60;;;0.90;99.90;;;;;;5035092;28;20848;-70
2022/03/07 05:57:33;;;;;;;18.33;11.37;;;0.90;99.90;;;;;;5034829;28;20617;-69
2022/03/07 06:00:00;;;;;;;17.70;11.40;;;0.90;99.90;;;;;;5035065;28;20468;-69
2022/03/07 06:02:27;;;;;;;15.80;11.73;;;0.90;99.90;;;;;;5035092;28;20459;-69
2022/03/07 06:04:53;;;;;;;13.60;11.07;;;0.90;99.90;;;;;;5035383;28;20467;-70
2022/03/07 06:07:22;;;;;;;13.23;10.57;;;0.90;99.90;;;;;;5035180;28;20451;-70
2022/03/07 06:09:48;;;;;;;14.00;10.50;;;0.90;99.90;;;;;;5035596;28;20447;-70
2022/03/07 06:12:16;;;;;;;15.40;10.80;;;0.90;99.90;;;;;;5034829;28;20456;-70
2022/03/07 06:14:43;;;;;;;13.43;10.37;;;0.90;99.90;;;;;;5035033;28;20486;-70
2022/03/07 06:17:10;;;;;;;13.77;10.37;;;0.90;99.90;;;;;;5034555;28;20777;-69
2022/03/07 06:19:36;;;;;;;15.47;9.90;;;0.80;99.90;;;;;;5034789;28;20460;-70
2022/03/07 06:22:03;;;;;;;12.07;10.17;;;0.80;99.90;;;;;;5034641;28;20456;-69
2022/03/07 06:24:31;;;;;;;14.17;10.37;;;0.80;99.90;;;;;;5034885;28;20455;-70
2022/03/07 06:26:58;;;;;;;13.33;10.60;;;0.80;99.90;;;;;;5034939;28;20460;-70
2022/03/07 06:29:25;;;;;;;13.50;10.97;;;0.80;99.90;;;;;;5035810;28;20456;-70
2022/03/07 06:31:52;;;;;;;14.07;9.50;;;0.80;99.90;;;;;;5034306;28;20986;-70
2022/03/07 06:34:18;;;;;;;16.43;10.33;;;0.80;99.90;;;;;;5034394;28;20466;-70
2022/03/07 06:36:45;;;;;;;12.43;10.80;;;0.90;99.90;;;;;;5034683;28;20467;-69
2022/03/07 06:39:12;;;;;;;16.40;12.07;;;0.90;99.90;;;;;;5034320;28;20479;-70
2022/03/07 06:41:40;;;;;;;16.23;11.73;;;1.00;99.90;;;;;;5034796;28;20779;-69
2022/03/07 06:44:06;;;;;;;16.70;11.23;;;1.00;99.90;;;;;;5034378;28;20836;-70
2022/03/07 06:46:33;;;;;;;15.57;11.23;;;1.00;99.90;;;;;;5034957;28;20456;-70
2022/03/07 06:49:00;;;;;;;15.33;11.60;;;1.00;99.90;;;;;;5037335;28;20460;-70
2022/03/07 06:51:26;;;;;;;16.07;11.33;;;1.00;99.90;;;;;;5034525;28;20456;-70
2022/03/07 06:53:53;;;;;;;15.97;12.00;;;1.00;99.90;;;;;;5035910;28;20867;-70
2022/03/07 06:56:20;;;;;;;18.10;12.40;;;1.10;99.90;;;;;;5039962;28;20549;-70
2022/03/07 06:58:48;;;;;;;18.17;13.17;;;1.10;99.90;;;;;;5040479;28;20488;-70
2022/03/07 07:01:15;;;;;;;20.27;12.50;;;1.20;99.90;;;;;;5039450;28;20467;-70
2022/03/07 07:03:41;;;;;;;16.40;12.17;;;1.30;99.90;;;;;;5039237;28;20468;-69
2022/03/07 07:06:08;;;;;;;17.20;12.37;;;1.30;99.90;;;;;;5038466;28;20475;-70
2022/03/07 07:08:35;;;;;;;20.93;12.53;;;1.40;99.90;;;;;;5038326;28;20804;-70
2022/03/07 07:11:02;;;;;;;16.80;12.20;;;1.50;99.90;;;;;;5038545;28;20456;-69
2022/03/07 07:13:28;;;;;;;19.03;12.17;;;1.60;99.90;;;;;;5038473;28;20460;-70
2022/03/07 07:15:57;;;;;;;20.70;12.83;;;1.60;99.90;;;;;;5038070;28;20470;-70
2022/03/07 07:18:24;;;;;;;15.00;11.80;;;1.70;99.90;;;;;;5037930;28;20511;-70
2022/03/07 07:20:51;;;;;;;16.17;11.90;;;1.70;99.90;;;;;;5038179;28;20467;-70
2022/03/07 07:23:18;;;;;;;16.90;12.93;;;1.70;99.90;;;;;;5037804;28;20808;-70
2022/03/07 07:25:45;;;;;;;17.10;13.07;;;1.80;99.90;;;;;;5037922;28;20460;-70
2022/03/07 07:28:12;;;;;;;19.47;12.73;;;1.80;99.90;;;;;;5037711;28;20738;-70
2022/03/07 07:30:39;;;;;;;18.17;13.00;;;1.90;99.90;;;;;;5037745;28;20471;-70
2022/03/07 07:33:07;;;;;;;24.90;12.60;;;1.90;99.90;;;;;;5037828;28;20526;-70
2022/03/07 07:35:36;;;;;;;21.07;12.57;;;1.90;99.90;;;;;;5037352;28;20463;-70
2022/03/07 07:38:03;;;;;;;23.87;13.80;;;1.90;99.90;;;;;;5037226;28;20512;-70
2022/03/07 07:40:30;;;;;;;19.40;12.60;;;2.00;99.90;;;;;;5037703;28;20908;-69
2022/03/07 07:42:57;;;;;;;17.97;13.10;;;2.00;99.90;;;;;;5037335;28;20502;-71
2022/03/07 07:45:24;;;;;;;17.83;13.07;;;2.10;99.90;;;;;;5037842;28;20474;-70
2022/03/07 07:47:51;;;;;;;23.87;14.00;;;2.10;99.90;;;;;;5037996;28;20452;-69
2022/03/07 07:50:19;;;;;;;17.00;12.40;;;2.20;99.90;;;;;;5040086;28;20463;-69
2022/03/07 07:52:47;;;;;;;22.20;14.40;;;2.30;99.90;;;;;;5047139;28;20463;-69
2022/03/07 07:55:14;;;;;;;18.73;12.37;;;2.30;99.90;;;;;;5043138;28;20452;-69
2022/03/07 07:57:41;;;;;;;22.90;13.10;;;2.40;99.90;;;;;;5042299;28;20486;-69
2022/03/07 08:00:10;;;;;;;20.83;13.50;;;2.40;99.90;;;;;;5039373;28;20800;-70
2022/03/07 08:02:36;;;;;;;19.30;12.40;;;2.50;99.90;;;;;;5037600;28;20941;-70
2022/03/07 08:05:04;;;;;;;18.57;13.77;;;2.60;99.90;;;;;;5037664;28;20498;-70
2022/03/07 08:07:34;;;;;;;17.70;12.43;;;2.70;99.90;;;;;;5037508;28;20459;-70
2022/03/07 08:10:00;;;;;;;19.50;13.23;;;2.70;99.90;;;;;;5037549;28;20559;-70
2022/03/07 08:12:27;;;;;;;15.70;11.57;;;2.80;99.90;;;;;;5037689;28;20850;-70
2022/03/07 08:14:54;;;;;;;19.13;13.07;;;2.80;99.90;;;;;;5037483;28;20460;-69
2022/03/07 08:17:21;;;;;;;16.23;12.50;;;2.90;99.90;;;;;;5037495;28;20456;-69
2022/03/07 08:19:47;;;;;;;19.13;11.70;;;3.00;99.90;;;;;;5037819;28;20480;-68
2022/03/07 08:22:15;;;;;;;15.13;11.50;;;3.00;99.90;;;;;;5037235;28;20979;-70
2022/03/07 08:24:43;;;;;;;16.20;12.20;;;3.10;99.90;;;;;;5037289;28;20460;-69
2022/03/07 08:27:10;;;;;;;19.30;12.40;;;3.20;99.90;;;;;;5037041;28;20456;-70
2022/03/07 08:29:37;;;;;;;14.67;10.43;;;3.20;99.90;;;;;;5036965;28;20460;-70
2022/03/07 08:32:07;;;;;;;14.93;11.13;;;3.30;99.90;;;;;;5037156;28;20464;-69
2022/03/07 08:34:35;;;;;;;18.70;10.13;;;3.30;99.90;;;;;;5037444;28;20448;-70
2022/03/07 08:37:02;;;;;;;16.50;10.63;;;3.40;99.90;;;;;;5037480;28;20554;-70
2022/03/07 08:39:29;;;;;;;18.03;11.20;;;3.50;99.90;;;;;;5039992;28;20483;-69
2022/03/07 08:41:57;;;;;;;13.83;10.50;;;3.50;99.90;;;;;;5040185;28;20452;-70
2022/03/07 08:44:23;;;;;;;15.70;9.70;;;3.60;99.90;;;;;;5039940;28;20456;-69
2022/03/07 08:46:50;;;;;;;19.73;10.67;;;3.70;99.90;;;;;;5039943;28;20456;-71
2022/03/07 08:49:17;;;;;;;16.17;10.67;;;3.80;99.90;;;;;;5040705;28;20448;-70
2022/03/07 08:51:46;;;;;;;12.57;8.57;;;3.90;99.90;;;;;;5039688;28;20861;-70
2022/03/07 08:54:14;;;;;;;10.20;8.40;;;4.00;99.90;;;;;;5039211;28;20943;-69
2022/03/07 08:56:41;;;;;;;13.17;9.73;;;4.00;99.90;;;;;;5038993;28;20484;-69
2022/03/07 08:59:09;;;;;;;10.20;8.40;;;4.00;99.90;;;;;;5036929;28;20491;-70
2022/03/07 09:01:36;;;;;;;11.37;8.93;;;4.10;99.90;;;;;;5036704;28;20491;-68
2022/03/07 09:04:03;;;;;;;17.13;10.57;;;4.20;99.90;;;;;;5036246;28;20518;-68
2022/03/07 09:06:30;;;;;;;15.30;8.10;;;4.20;99.90;;;;;;5036465;28;20456;-68
2022/03/07 09:08:57;;;;;;;10.10;9.10;;;4.20;99.90;;;;;;5036296;28;20452;-67
2022/03/07 09:11:24;;;;;;;10.17;7.50;;;4.30;99.90;;;;;;5035716;28;20471;-67
2022/03/07 09:13:50;;;;;;;15.20;8.63;;;4.40;99.90;;;;;;5035814;28;20464;-68
2022/03/07 09:16:18;;;;;;;12.70;7.50;;;4.50;99.90;;;;;;5035820;28;20464;-67
2022/03/07 09:18:45;;;;;;;12.83;8.27;;;4.50;99.90;;;;;;5034562;28;20495;-68
2022/03/07 09:21:12;;;;;;;10.40;8.43;;;4.60;99.90;;;;;;5035670;28;20464;-67
2022/03/07 09:23:38;;;;;;;8.67;7.77;;;4.60;99.90;;;;;;5035824;28;20460;-68
2022/03/07 09:26:06;;;;;;;9.33;7.27;;;4.70;99.90;;;;;;5035791;28;20467;-68
2022/03/07 09:28:33;;;;;;;9.87;7.90;;;4.80;99.90;;;;;;5035387;28;20483;-68
2022/03/07 09:31:00;;;;;;;10.67;6.83;;;4.80;99.90;;;;;;5035236;28;20479;-67
2022/03/07 09:33:29;;;;;;;8.67;7.03;;;4.80;99.90;;;;;;5035515;28;20547;-68
2022/03/07 09:35:56;;;;;;;13.67;7.77;;;4.80;99.90;;;;;;5035331;28;20472;-68
2022/03/07 09:38:22;;;;;;;14.33;7.10;;;4.80;99.90;;;;;;5035289;28;20558;-67
2022/03/07 09:40:49;;;;;;;10.23;6.80;;;4.90;99.90;;;;;;5034746;28;20890;-68
2022/03/07 09:43:16;;;;;;;9.20;7.00;;;4.90;99.90;;;;;;5034901;28;20521;-68
2022/03/07 09:45:43;;;;;;;16.20;7.50;;;4.90;99.90;;;;;;5035270;28;20490;-67
2022/03/07 09:48:11;;;;;;;13.20;9.43;;;4.90;99.90;;;;;;5035242;28;20514;-68
2022/03/07 09:50:40;;;;;;;10.53;7.70;;;5.00;99.90;;;;;;5035011;28;20788;-68
2022/03/07 09:53:08;;;;;;;9.33;6.70;;;5.00;99.90;;;;;;5034422;28;20921;-69
2022/03/07 09:55:35;;;;;;;8.00;6.50;;;5.00;99.90;;;;;;5034912;28;20460;-67
2022/03/07 09:58:02;;;;;;;8.97;7.20;;;5.10;99.90;;;;;;5034617;28;20452;-68
2022/03/07 10:00:28;;;;;;;43.63;23.50;;;5.10;99.90;;;;;;5034914;28;20908;-68
2022/03/07 10:02:57;;;;;;;14.17;9.40;;;5.10;99.90;;;;;;5034801;28;20463;-67
2022/03/07 10:05:27;;;;;;;12.30;7.40;;;5.20;99.90;;;;;;5034730;28;20474;-68
2022/03/07 10:07:55;;;;;;;11.33;7.53;;;5.20;99.90;;;;;;5034377;28;20468;-68
2022/03/07 10:10:23;;;;;;;9.03;7.33;;;5.20;99.90;;;;;;5034841;28;20460;-67
2022/03/07 10:12:51;;;;;;;6.33;5.70;;;5.30;99.90;;;;;;5034660;28;20521;-68
2022/03/07 10:15:20;;;;;;;11.27;6.80;;;5.30;99.90;;;;;;5034828;28;20782;-67
2022/03/07 10:17:49;;;;;;;10.53;6.20;;;5.40;99.90;;;;;;5034504;28;20769;-68
2022/03/07 10:20:19;;;;;;;8.20;6.60;;;5.40;99.90;;;;;;5034592;28;20799;-68
2022/03/07 10:22:47;;;;;;;8.80;6.33;;;5.50;99.90;;;;;;5034865;28;20547;-68
2022/03/07 10:25:16;;;;;;;8.93;6.27;;;5.50;99.90;;;;;;5034379;28;20460;-68
2022/03/07 10:27:44;;;;;;;7.70;6.43;;;5.50;99.90;;;;;;5034644;28;20534;-67
2022/03/07 10:30:13;;;;;;;8.93;6.53;;;5.50;99.90;;;;;;5034232;28;20463;-67
2022/03/07 10:32:39;;;;;;;13.67;8.50;;;5.50;99.90;;;;;;5039350;28;20452;-68
2022/03/07 10:35:07;;;;;;;7.67;6.03;;;5.60;99.90;;;;;;5039448;28;20463;-68
2022/03/07 10:37:36;;;;;;;6.13;5.40;;;5.60;99.90;;;;;;5039826;28;20535;-68
2022/03/07 10:40:07;;;;;;;9.30;5.57;;;5.60;99.90;;;;;;5034909;28;20491;-68
2022/03/07 10:42:44;;;;;;;9.07;6.87;;;5.70;99.90;;;;;;5034269;28;20523;-67
2022/03/07 10:45:15;;;;;;;9.30;6.80;;;5.80;99.90;;;;;;5034321;28;20444;-68
2022/03/07 10:47:41;;;;;;;9.60;6.83;;;5.80;99.90;;;;;;5034168;28;20790;-67
2022/03/07 10:50:10;;;;;;;8.27;6.67;;;5.90;99.90;;;;;;5034311;28;20531;-68
2022/03/07 10:52:38;;;;;;;7.90;5.60;;;6.00;99.90;;;;;;5034048;28;20464;-68
2022/03/07 10:55:06;;;;;;;9.40;6.93;;;6.00;99.90;;;;;;5034316;28;20491;-68
2022/03/07 10:57:38;;;;;;;7.57;5.43;;;6.10;99.90;;;;;;5035135;28;20491;-68
2022/03/07 11:00:08;;;;;;;7.73;5.80;;;6.10;99.90;;;;;;5034377;28;20475;-68
2022/03/07 11:02:40;;;;;;;8.10;5.30;;;6.20;99.90;;;;;;5034434;28;20844;-68
2022/03/07 11:05:08;;;;;;;6.33;5.30;;;6.20;99.90;;;;;;5034788;28;20897;-68
2022/03/07 11:07:37;;;;;;;7.60;5.43;;;6.20;93.80;;;;;;5034876;28;20550;-69
2022/03/07 11:10:05;;;;;;;5.10;4.50;;;6.30;94.80;;;;;;5034293;28;20463;-68
2022/03/07 11:12:33;;;;;;;7.63;4.47;;;6.30;73.30;;;;;;5034189;28;20456;-67
2022/03/07 11:15:08;;;;;;;5.50;4.60;;;6.50;30.50;;;;;;5037373;28;20888;-69
2022/03/07 11:17:38;;;;;;;6.70;5.20;;;6.60;15.80;;;;;;5034854;28;20454;-67
2022/03/07 11:20:06;;;;;;;5.80;4.60;;;6.70;2.40;;;;;;5034022;28;20559;-68
2022/03/07 11:22:33;;;;;;;6.00;4.60;;;6.80;1.00;;;;;;5034210;28;20506;-68
2022/03/07 11:25:01;;;;;;;5.00;4.33;;;6.80;1.00;;;;;;5035294;28;20864;-68
2022/03/07 11:27:28;;;;;;;5.23;4.43;;;6.80;1.00;;;;;;5035312;28;20467;-68
2022/03/07 11:29:55;;;;;;;5.43;4.87;;;6.90;1.00;;;;;;5037997;28;20456;-69
2022/03/07 11:32:23;;;;;;;5.10;4.40;;;7.00;1.00;;;;;;5036232;28;20460;-69
2022/03/07 11:34:55;;;;;;;5.70;4.87;;;7.00;1.00;;;;;;5036318;28;20913;-68
2022/03/07 11:37:23;;;;;;;6.37;5.37;;;7.10;1.00;;;;;;5035841;28;20900;-70
2022/03/07 11:39:56;;;;;;;5.87;4.87;;;7.20;1.00;;;;;;5034204;28;20974;-68
2022/03/07 11:42:24;;;;;;;4.17;3.23;;;7.30;1.00;;;;;;5036877;28;20581;-71
2022/03/07 11:44:51;;;;;;;5.60;4.30;;;7.40;1.00;;;;;;5037685;28;20448;-69
2022/03/07 11:47:19;;;;;;;3.20;2.90;;;7.50;1.00;;;;;;5037648;28;20456;-68
2022/03/07 11:49:59;;;;;;;20.47;11.87;;;7.60;1.00;;;;;;5037505;28;20470;-68
2022/03/07 11:52:26;;;;;;;7.87;4.13;;;7.80;1.00;;;;;;5036891;28;20440;-68
2022/03/07 11:54:55;;;;;;;4.90;3.83;;;7.90;1.00;;;;;;5037609;28;20460;-69
2022/03/07 11:57:33;;;;;;;8.83;4.90;;;8.00;1.00;;;;;;5037125;28;20456;-68
2022/03/07 12:00:12;;;;;;;4.20;3.40;;;8.20;1.00;;;;;;5036914;28;20526;-69
2022/03/07 12:02:42;;;;;;;5.10;3.20;;;8.30;1.00;;;;;;5036676;28;20448;-68
2022/03/07 12:05:22;;;;;;;7.10;4.33;;;8.40;1.00;;;;;;5036639;28;20462;-69
2022/03/07 12:07:48;;;;;;;3.63;3.27;;;8.80;1.00;;;;;;5036810;28;20444;-68
2022/03/07 12:10:15;;;;;;;4.57;3.13;;;9.40;1.00;;;;;;5036616;28;20489;-67
2022/03/07 12:12:42;;;;;;;4.47;2.83;;;10.50;1.00;;;;;;5036914;28;20471;-67
2022/03/07 12:15:10;;;;;;;3.60;2.47;;;11.60;1.00;;;;;;5036495;28;20936;-68
2022/03/07 12:17:37;;;;;;;4.37;2.83;;;12.70;1.00;;;;;;5036378;28;20464;-69
2022/03/07 12:20:05;;;;;;;3.47;2.90;;;14.00;1.00;;;;;;5036594;28;20480;-67
2022/03/07 12:22:34;;;;;;;3.30;2.53;;;15.00;1.00;;;;;;5036404;28;20456;-68
2022/03/07 12:25:03;;;;;;;3.00;2.50;;;15.40;1.00;;;;;;5036862;28;20494;-68
2022/03/07 12:27:33;;;;;;;4.63;2.80;;;15.70;1.00;;;;;;5037223;28;20471;-68
2022/03/07 12:30:00;;;;;;;2.50;2.17;;;16.20;1.00;;;;;;5036563;28;20527;-68
2022/03/07 12:32:27;;;;;;;7.60;1.90;;;16.70;1.00;;;;;;5036249;28;20927;-68
2022/03/07 12:34:55;;;;;;;3.60;1.73;;;17.10;1.00;;;;;;5036658;28;20563;-68
2022/03/07 12:37:22;;;;;;;3.00;1.60;;;17.20;1.00;;;;;;5036807;28;20456;-68
2022/03/07 12:39:53;;;;;;;2.30;1.83;;;16.90;1.00;;;;;;5036429;28;20854;-67
2022/03/07 12:42:20;;;;;;;2.20;1.80;;;16.60;1.00;;;;;;5036241;28;20591;-68
2022/03/07 12:44:48;;;;;;;2.47;1.63;;;16.90;1.00;;;;;;5036417;28;20441;-67
2022/03/07 12:47:17;;;;;;;3.27;2.50;;;17.30;1.00;;;;;;5036264;28;20490;-68
2022/03/07 12:49:48;;;;;;;2.53;2.20;;;17.70;1.00;;;;;;5036067;28;20456;-67
2022/03/07 12:52:23;;;;;;;3.07;1.90;;;17.80;1.00;;;;;;5035851;28;20459;-67